createdAt,value
2018-02-24T00:00:57.434Z,1032.98
2018-02-24T00:02:24.468Z,1033.01
2018-02-24T00:03:51.537Z,1033.05
2018-02-24T00:05:18.472Z,1033.04
2018-02-24T00:06:45.760Z,1033.06
2018-02-24T00:08:12.808Z,1033.03
2018-02-24T00:09:39.808Z,1033.04
2018-02-24T00:11:06.945Z,1033.03
2018-02-24T00:12:34.298Z,1033.05
2018-02-24T00:14:01.358Z,1033.05
2018-02-24T00:15:28.509Z,1033.07
2018-02-24T00:16:55.456Z,1033.08
2018-02-24T00:18:22.769Z,1033.06
2018-02-24T00:19:49.852Z,1033.05
2018-02-24T00:21:17.082Z,1033.06
2018-02-24T00:22:44.150Z,1033.06
2018-02-24T00:24:11.172Z,1033.09
2018-02-24T00:25:38.518Z,1033.07
2018-02-24T00:27:05.525Z,1033.07
2018-02-24T00:28:32.429Z,1033.06
2018-02-24T00:29:59.591Z,1033.07
2018-02-24T00:31:26.600Z,1033.06
2018-02-24T00:32:53.658Z,1033.08
2018-02-24T00:34:20.835Z,1033.05
2018-02-24T00:35:48.044Z,1033.04
2018-02-24T00:37:15.257Z,1033.02
2018-02-24T00:38:42.285Z,1033.02
2018-02-24T00:40:09.048Z,1033.03
2018-02-24T00:41:36.238Z,1033.03
2018-02-24T00:43:03.343Z,1033.01
2018-02-24T00:44:30.293Z,1033.04
2018-02-24T00:45:57.405Z,1033.04
2018-02-24T00:47:24.512Z,1033.04
2018-02-24T00:48:51.643Z,1033.08
2018-02-24T00:50:18.853Z,1033.06
2018-02-24T00:51:45.755Z,1033.05
2018-02-24T00:53:12.879Z,1033.09
2018-02-24T00:54:39.887Z,1033.10
2018-02-24T00:56:07.021Z,1033.12
2018-02-24T00:57:34.086Z,1033.12
2018-02-24T00:59:01.072Z,1033.12
2018-02-24T01:00:28.358Z,1033.13
2018-02-24T01:01:55.506Z,1033.12
2018-02-24T01:03:22.721Z,1033.13
2018-02-24T01:04:49.496Z,1033.14
2018-02-24T01:06:16.700Z,1033.13
2018-02-24T01:07:43.663Z,1033.16
2018-02-24T01:09:10.531Z,1033.17
2018-02-24T01:10:37.663Z,1033.18
2018-02-24T01:12:04.753Z,1033.19
2018-02-24T01:13:31.774Z,1033.21
2018-02-24T01:14:58.652Z,1033.26
2018-02-24T01:16:25.868Z,1033.27
2018-02-24T01:17:53.015Z,1033.30
2018-02-24T01:19:20.081Z,1033.32
2018-02-24T01:20:47.013Z,1033.29
2018-02-24T01:22:14.082Z,1033.26
2018-02-24T01:23:41.042Z,1033.25
2018-02-24T01:25:07.898Z,1033.24
2018-02-24T01:26:34.848Z,1033.20
2018-02-24T01:28:01.757Z,1033.20
2018-02-24T01:29:28.949Z,1033.20
2018-02-24T01:30:56.276Z,1033.21
2018-02-24T01:32:23.497Z,1033.22
2018-02-24T01:33:50.527Z,1033.20
2018-02-24T01:35:17.536Z,1033.19
2018-02-24T01:36:44.714Z,1033.22
2018-02-24T01:38:11.865Z,1033.25
2018-02-24T01:39:39.176Z,1033.26
2018-02-24T01:41:06.294Z,1033.24
2018-02-24T01:42:33.357Z,1033.24
2018-02-24T01:44:00.475Z,1033.22
2018-02-24T01:45:27.965Z,1033.25
2018-02-24T01:46:54.865Z,1033.24
2018-02-24T01:48:21.519Z,1033.28
2018-02-24T01:49:48.803Z,1033.26
2018-02-24T01:51:15.978Z,1033.28
2018-02-24T01:52:43.063Z,1033.29
2018-02-24T01:54:10.351Z,1033.29
2018-02-24T01:55:37.449Z,1033.28
2018-02-24T01:57:04.451Z,1033.32
2018-02-24T01:58:31.324Z,1033.33
2018-02-24T01:59:58.510Z,1033.33
2018-02-24T02:01:25.628Z,1033.34
2018-02-24T02:02:52.730Z,1033.34
2018-02-24T02:04:19.752Z,1033.34
2018-02-24T02:05:46.927Z,1033.34
2018-02-24T02:07:14.080Z,1033.35
2018-02-24T02:08:41.205Z,1033.35
2018-02-24T02:10:08.211Z,1033.32
2018-02-24T02:11:35.341Z,1033.30
2018-02-24T02:13:02.452Z,1033.30
2018-02-24T02:14:29.444Z,1033.27
2018-02-24T02:15:56.547Z,1033.28
2018-02-24T02:17:23.814Z,1033.27
2018-02-24T02:18:53.498Z,1033.24
2018-02-24T02:20:17.653Z,1033.24
2018-02-24T02:21:44.819Z,1033.27
2018-02-24T02:23:11.981Z,1033.29
2018-02-24T02:24:38.907Z,1033.31
2018-02-24T02:26:06.112Z,1033.31
2018-02-24T02:27:33.182Z,1033.31
2018-02-24T02:29:00.321Z,1033.31
2018-02-24T02:30:27.335Z,1033.34
2018-02-24T02:31:54.567Z,1033.37
2018-02-24T02:33:21.350Z,1033.38
2018-02-24T02:34:48.452Z,1033.37
2018-02-24T02:36:15.524Z,1033.38
2018-02-24T02:37:42.691Z,1033.38
2018-02-24T02:39:09.712Z,1033.39
2018-02-24T02:40:36.839Z,1033.43
2018-02-24T02:42:03.626Z,1033.44
2018-02-24T02:43:30.642Z,1033.46
2018-02-24T02:44:57.841Z,1033.48
2018-02-24T02:46:24.932Z,1033.48
2018-02-24T02:47:52.101Z,1033.50
2018-02-24T02:49:19.236Z,1033.53
2018-02-24T02:50:46.313Z,1033.52
2018-02-24T02:52:13.549Z,1033.55
2018-02-24T02:53:40.683Z,1033.56
2018-02-24T02:55:07.719Z,1033.57
2018-02-24T02:56:34.919Z,1033.57
2018-02-24T02:58:02.094Z,1033.58
2018-02-24T02:59:29.094Z,1033.59
2018-02-24T03:00:56.217Z,1033.58
2018-02-24T03:02:23.314Z,1033.58
2018-02-24T03:03:50.267Z,1033.59
2018-02-24T03:05:17.361Z,1033.60
2018-02-24T03:06:44.543Z,1033.63
2018-02-24T03:08:11.555Z,1033.63
2018-02-24T03:09:38.581Z,1033.65
2018-02-24T03:11:05.685Z,1033.68
2018-02-24T03:12:32.755Z,1033.70
2018-02-24T03:13:59.501Z,1033.71
2018-02-24T03:15:26.619Z,1033.70
2018-02-24T03:16:53.731Z,1033.69
2018-02-24T03:18:20.707Z,1033.68
2018-02-24T03:19:47.748Z,1033.67
2018-02-24T03:21:14.987Z,1033.68
2018-02-24T03:22:41.979Z,1033.67
2018-02-24T03:24:08.998Z,1033.68
2018-02-24T03:25:36.042Z,1033.69
2018-02-24T03:27:03.038Z,1033.67
2018-02-24T03:28:29.815Z,1033.71
2018-02-24T03:29:56.916Z,1033.70
2018-02-24T03:31:23.764Z,1033.72
2018-02-24T03:32:50.933Z,1033.69
2018-02-24T03:34:17.990Z,1033.71
2018-02-24T03:35:45.138Z,1033.72
2018-02-24T03:37:12.072Z,1033.73
2018-02-24T03:38:38.964Z,1033.75
2018-02-24T03:40:06.100Z,1033.75
2018-02-24T03:41:33.122Z,1033.80
2018-02-24T03:43:00.093Z,1033.83
2018-02-24T03:44:27.132Z,1033.85
2018-02-24T03:45:54.267Z,1033.85
2018-02-24T03:47:21.305Z,1033.83
2018-02-24T03:48:48.324Z,1033.82
2018-02-24T03:50:15.424Z,1033.82
2018-02-24T03:51:42.398Z,1033.83
2018-02-24T03:53:09.629Z,1033.88
2018-02-24T03:54:36.710Z,1033.91
2018-02-24T03:56:03.514Z,1033.92
2018-02-24T03:57:30.309Z,1033.93
2018-02-24T03:58:57.595Z,1033.96
2018-02-24T04:00:24.472Z,1033.96
2018-02-24T04:01:51.398Z,1033.99
2018-02-24T04:03:18.601Z,1034.00
2018-02-24T04:04:45.579Z,1034.04
2018-02-24T04:06:12.687Z,1034.06
2018-02-24T04:07:39.531Z,1034.07
2018-02-24T04:09:06.690Z,1034.07
2018-02-24T04:10:33.840Z,1034.04
2018-02-24T04:12:00.530Z,1034.03
2018-02-24T04:13:27.755Z,1034.11
2018-02-24T04:14:54.769Z,1034.16
2018-02-24T04:16:21.885Z,1034.16
2018-02-24T04:17:49.023Z,1034.20
2018-02-24T04:19:15.930Z,1034.21
2018-02-24T04:20:43.131Z,1034.24
2018-02-24T04:22:09.701Z,1034.26
2018-02-24T04:23:36.711Z,1034.28
2018-02-24T04:25:03.848Z,1034.29
2018-02-24T04:26:30.642Z,1034.31
2018-02-24T04:27:57.888Z,1034.30
2018-02-24T04:29:25.141Z,1034.28
2018-02-24T04:30:52.177Z,1034.28
2018-02-24T04:32:19.088Z,1034.26
2018-02-24T04:33:46.174Z,1034.26
2018-02-24T04:35:13.266Z,1034.27
2018-02-24T04:36:40.001Z,1034.28
2018-02-24T04:38:07.164Z,1034.30
2018-02-24T04:39:34.187Z,1034.30
2018-02-24T04:41:01.296Z,1034.31
2018-02-24T04:42:28.216Z,1034.29
2018-02-24T04:43:55.492Z,1034.29
2018-02-24T04:45:22.753Z,1034.30
2018-02-24T04:46:49.864Z,1034.29
2018-02-24T04:48:16.973Z,1034.33
2018-02-24T04:49:43.977Z,1034.31
2018-02-24T04:51:11.112Z,1034.31
2018-02-24T04:52:38.309Z,1034.31
2018-02-24T04:54:05.140Z,1034.32
2018-02-24T04:55:32.174Z,1034.34
2018-02-24T04:56:59.291Z,1034.35
2018-02-24T04:58:26.148Z,1034.36
2018-02-24T04:59:53.240Z,1034.37
2018-02-24T05:01:20.250Z,1034.42
2018-02-24T05:02:47.090Z,1034.44
2018-02-24T05:04:14.067Z,1034.49
2018-02-24T05:05:40.937Z,1034.51
2018-02-24T05:07:07.828Z,1034.51
2018-02-24T05:08:34.926Z,1034.50
2018-02-24T05:10:01.956Z,1034.51
2018-02-24T05:11:28.909Z,1034.54
2018-02-24T05:12:56.244Z,1034.55
2018-02-24T05:14:23.311Z,1034.58
2018-02-24T05:15:50.669Z,1034.59
2018-02-24T05:17:17.523Z,1034.58
2018-02-24T05:18:44.597Z,1034.60
2018-02-24T05:20:11.793Z,1034.62
2018-02-24T05:21:38.758Z,1034.63
2018-02-24T05:23:06.002Z,1034.66
2018-02-24T05:24:32.804Z,1034.74
2018-02-24T05:25:59.636Z,1034.71
2018-02-24T05:27:26.758Z,1034.78
2018-02-24T05:28:53.861Z,1034.78
2018-02-24T05:30:20.769Z,1034.82
2018-02-24T05:31:47.912Z,1034.85
2018-02-24T05:33:14.860Z,1034.91
2018-02-24T05:34:41.989Z,1034.86
2018-02-24T05:36:09.194Z,1034.89
2018-02-24T05:37:36.336Z,1034.91
2018-02-24T05:39:03.179Z,1034.94
2018-02-24T05:40:30.059Z,1034.88
2018-02-24T05:41:57.238Z,1034.86
2018-02-24T05:43:24.311Z,1034.89
2018-02-24T05:44:51.346Z,1034.90
2018-02-24T05:46:18.439Z,1034.96
2018-02-24T05:47:45.401Z,1034.96
2018-02-24T05:49:12.712Z,1035.02
2018-02-24T05:50:39.707Z,1035.02
2018-02-24T05:52:06.613Z,1035.09
2018-02-24T05:53:33.656Z,1035.06
2018-02-24T05:55:00.596Z,1035.12
2018-02-24T05:56:27.748Z,1035.12
2018-02-24T05:57:54.724Z,1035.15
2018-02-24T05:59:21.942Z,1035.15
2018-02-24T06:00:49.043Z,1035.21
2018-02-24T06:02:16.210Z,1035.20
2018-02-24T06:03:43.512Z,1035.20
2018-02-24T06:05:10.668Z,1035.26
2018-02-24T06:06:37.628Z,1035.23
2018-02-24T06:08:04.753Z,1035.22
2018-02-24T06:09:31.651Z,1035.22
2018-02-24T06:10:58.772Z,1035.23
2018-02-24T06:12:25.954Z,1035.27
2018-02-24T06:13:53.088Z,1035.27
2018-02-24T06:15:20.105Z,1035.31
2018-02-24T06:16:47.383Z,1035.34
2018-02-24T06:18:14.410Z,1035.37
2018-02-24T06:19:41.492Z,1035.38
2018-02-24T06:21:08.345Z,1035.39
2018-02-24T06:22:35.472Z,1035.42
2018-02-24T06:24:02.560Z,1035.45
2018-02-24T06:25:29.498Z,1035.47
2018-02-24T06:26:56.665Z,1035.50
2018-02-24T06:28:23.796Z,1035.50
2018-02-24T06:29:50.781Z,1035.49
2018-02-24T06:31:17.877Z,1035.52
2018-02-24T06:32:44.821Z,1035.49
2018-02-24T06:34:11.876Z,1035.45
2018-02-24T06:35:39.004Z,1035.46
2018-02-24T06:37:06.085Z,1035.48
2018-02-24T06:38:32.997Z,1035.48
2018-02-24T06:39:59.947Z,1035.52
2018-02-24T06:41:27.063Z,1035.51
2018-02-24T06:42:54.078Z,1035.53
2018-02-24T06:44:21.239Z,1035.54
2018-02-24T06:45:48.420Z,1035.59
2018-02-24T06:47:15.317Z,1035.61
2018-02-24T06:48:42.340Z,1035.62
2018-02-24T06:50:09.096Z,1035.65
2018-02-24T06:51:36.039Z,1035.67
2018-02-24T06:53:03.065Z,1035.70
2018-02-24T06:54:29.881Z,1035.73
2018-02-24T06:55:56.896Z,1035.74
2018-02-24T06:57:24.192Z,1035.74
2018-02-24T06:58:51.204Z,1035.76
2018-02-24T07:00:18.375Z,1035.77
2018-02-24T07:01:45.656Z,1035.78
2018-02-24T07:03:12.561Z,1035.80
2018-02-24T07:04:39.508Z,1035.84
2018-02-24T07:06:06.432Z,1035.86
2018-02-24T07:07:33.498Z,1035.90
2018-02-24T07:09:00.221Z,1035.89
2018-02-24T07:10:27.317Z,1035.90
2018-02-24T07:11:54.366Z,1035.88
2018-02-24T07:13:21.496Z,1035.87
2018-02-24T07:14:48.533Z,1035.90
2018-02-24T07:16:15.546Z,1035.87
2018-02-24T07:17:45.562Z,1035.87
2018-02-24T07:19:09.526Z,1035.89
2018-02-24T07:20:36.576Z,1035.90
2018-02-24T07:22:03.787Z,1035.89
2018-02-24T07:23:30.861Z,1035.87
2018-02-24T07:24:58.011Z,1035.90
2018-02-24T07:26:25.051Z,1035.91
2018-02-24T07:27:52.251Z,1035.93
2018-02-24T07:29:19.182Z,1035.96
2018-02-24T07:30:46.333Z,1035.90
2018-02-24T07:32:13.225Z,1035.91
2018-02-24T07:33:40.460Z,1035.91
2018-02-24T07:35:07.629Z,1035.94
2018-02-24T07:36:34.608Z,1035.93
2018-02-24T07:38:01.677Z,1035.93
2018-02-24T07:39:28.795Z,1035.91
2018-02-24T07:40:55.874Z,1035.88
2018-02-24T07:42:22.796Z,1035.88
2018-02-24T07:43:49.864Z,1035.85
2018-02-24T07:45:17.076Z,1035.88
2018-02-24T07:46:44.281Z,1035.87
2018-02-24T07:48:11.495Z,1035.90
2018-02-24T07:49:38.403Z,1035.89
2018-02-24T07:51:05.403Z,1035.89
2018-02-24T07:52:32.389Z,1035.92
2018-02-24T07:53:59.167Z,1035.89
2018-02-24T07:55:26.407Z,1035.89
2018-02-24T07:56:53.533Z,1035.89
2018-02-24T07:58:21.526Z,1035.90
2018-02-24T07:59:47.576Z,1035.92
2018-02-24T08:01:14.576Z,1035.94
2018-02-24T08:02:41.739Z,1035.92
2018-02-24T08:04:08.780Z,1035.92
2018-02-24T08:05:35.825Z,1035.94
2018-02-24T08:07:02.977Z,1035.94
2018-02-24T08:08:30.052Z,1035.98
2018-02-24T08:09:56.923Z,1035.98
2018-02-24T08:11:24.151Z,1036.02
2018-02-24T08:12:51.217Z,1036.00
2018-02-24T08:14:18.289Z,1035.99
2018-02-24T08:15:45.465Z,1036.01
2018-02-24T08:17:12.652Z,1036.00
2018-02-24T08:18:39.716Z,1036.00
2018-02-24T08:20:06.880Z,1035.99
2018-02-24T08:21:33.778Z,1035.94
2018-02-24T08:23:00.873Z,1035.97
2018-02-24T08:24:27.770Z,1035.96
2018-02-24T08:25:54.816Z,1035.91
2018-02-24T08:27:22.030Z,1035.90
2018-02-24T08:28:49.101Z,1035.96
2018-02-24T08:30:16.193Z,1035.99
2018-02-24T08:31:43.277Z,1035.98
2018-02-24T08:33:10.364Z,1036.01
2018-02-24T08:34:37.273Z,1036.03
2018-02-24T08:36:04.389Z,1036.04
2018-02-24T08:37:32.179Z,1036.04
2018-02-24T08:38:58.665Z,1036.04
2018-02-24T08:40:25.516Z,1036.08
2018-02-24T08:41:52.673Z,1036.15
2018-02-24T08:43:19.824Z,1036.14
2018-02-24T08:44:47.036Z,1036.18
2018-02-24T08:46:14.074Z,1036.20
2018-02-24T08:47:41.102Z,1036.23
2018-02-24T08:49:08.163Z,1036.23
2018-02-24T08:50:35.170Z,1036.25
2018-02-24T08:52:02.245Z,1036.24
2018-02-24T08:53:29.367Z,1036.24
2018-02-24T08:54:56.306Z,1036.25
2018-02-24T08:56:23.568Z,1036.26
2018-02-24T08:57:50.740Z,1036.26
2018-02-24T08:59:17.913Z,1036.29
2018-02-24T09:00:44.926Z,1036.28
2018-02-24T09:02:11.881Z,1036.26
2018-02-24T09:03:38.972Z,1036.25
2018-02-24T09:05:06.176Z,1036.29
2018-02-24T09:06:33.297Z,1036.28
2018-02-24T09:08:00.227Z,1036.22
2018-02-24T09:09:27.476Z,1036.16
2018-02-24T09:10:54.700Z,1036.22
2018-02-24T09:12:21.836Z,1036.24
2018-02-24T09:13:48.911Z,1036.27
2018-02-24T09:15:16.085Z,1036.30
2018-02-24T09:16:43.189Z,1036.31
2018-02-24T09:18:10.257Z,1036.29
2018-02-24T09:19:37.333Z,1036.33
2018-02-24T09:21:04.544Z,1036.34
2018-02-24T09:22:31.639Z,1036.37
2018-02-24T09:23:58.609Z,1036.35
2018-02-24T09:25:25.720Z,1036.39
2018-02-24T09:26:52.863Z,1036.42
2018-02-24T09:28:19.797Z,1036.45
2018-02-24T09:29:47.052Z,1036.42
2018-02-24T09:31:14.275Z,1036.45
2018-02-24T09:32:41.123Z,1036.42
2018-02-24T09:34:08.036Z,1036.43
2018-02-24T09:35:35.193Z,1036.51
2018-02-24T09:37:02.003Z,1036.50
2018-02-24T09:38:29.123Z,1036.50
2018-02-24T09:39:56.332Z,1036.55
2018-02-24T09:41:23.568Z,1036.57
2018-02-24T09:42:50.750Z,1036.57
2018-02-24T09:44:17.713Z,1036.57
2018-02-24T09:45:44.841Z,1036.56
2018-02-24T09:47:11.639Z,1036.57
2018-02-24T09:48:38.733Z,1036.56
2018-02-24T09:50:05.930Z,1036.54
2018-02-24T09:51:32.912Z,1036.49
2018-02-24T09:52:59.660Z,1036.49
2018-02-24T09:54:26.902Z,1036.49
2018-02-24T09:55:53.971Z,1036.52
2018-02-24T09:57:21.076Z,1036.48
2018-02-24T09:58:48.159Z,1036.56
2018-02-24T10:00:15.108Z,1036.56
2018-02-24T10:01:42.296Z,1036.57
2018-02-24T10:03:09.391Z,1036.57
2018-02-24T10:04:36.569Z,1036.55
2018-02-24T10:06:03.128Z,1036.59
2018-02-24T10:07:30.030Z,1036.53
2018-02-24T10:08:57.230Z,1036.55
2018-02-24T10:10:24.356Z,1036.57
2018-02-24T10:11:51.408Z,1036.54
2018-02-24T10:13:18.471Z,1036.52
2018-02-24T10:14:45.571Z,1036.51
2018-02-24T10:16:12.729Z,1036.48
2018-02-24T10:17:39.729Z,1036.44
2018-02-24T10:19:06.749Z,1036.40
2018-02-24T10:20:33.755Z,1036.36
2018-02-24T10:22:00.781Z,1036.38
2018-02-24T10:23:27.888Z,1036.38
2018-02-24T10:24:54.999Z,1036.38
2018-02-24T10:26:22.084Z,1036.38
2018-02-24T10:27:49.106Z,1036.41
2018-02-24T10:29:16.321Z,1036.43
2018-02-24T10:30:43.475Z,1036.46
2018-02-24T10:32:10.471Z,1036.52
2018-02-24T10:33:37.674Z,1036.50
2018-02-24T10:35:04.835Z,1036.50
2018-02-24T10:36:31.891Z,1036.53
2018-02-24T10:37:59.090Z,1036.50
2018-02-24T10:39:26.142Z,1036.52
2018-02-24T10:40:53.307Z,1036.52
2018-02-24T10:42:20.391Z,1036.54
2018-02-24T10:43:47.378Z,1036.55
2018-02-24T10:45:14.381Z,1036.57
2018-02-24T10:46:41.564Z,1036.51
2018-02-24T10:48:08.358Z,1036.50
2018-02-24T10:49:35.184Z,1036.50
2018-02-24T10:51:02.109Z,1036.51
2018-02-24T10:52:29.200Z,1036.52
2018-02-24T10:53:56.341Z,1036.53
2018-02-24T10:55:23.352Z,1036.56
2018-02-24T10:56:50.236Z,1036.55
2018-02-24T10:58:17.534Z,1036.56
2018-02-24T10:59:44.546Z,1036.57
2018-02-24T11:01:11.537Z,1036.57
2018-02-24T11:02:38.631Z,1036.56
2018-02-24T11:04:05.601Z,1036.56
2018-02-24T11:05:32.671Z,1036.56
2018-02-24T11:06:59.774Z,1036.58
2018-02-24T11:08:27.058Z,1036.55
2018-02-24T11:09:53.993Z,1036.52
2018-02-24T11:11:21.224Z,1036.51
2018-02-24T11:12:48.420Z,1036.56
2018-02-24T11:14:15.729Z,1036.49
2018-02-24T11:15:42.729Z,1036.51
2018-02-24T11:17:09.818Z,1036.50
2018-02-24T11:18:36.940Z,1036.47
2018-02-24T11:20:03.951Z,1036.45
2018-02-24T11:21:30.959Z,1036.47
2018-02-24T11:22:58.230Z,1036.51
2018-02-24T11:24:25.265Z,1036.51
2018-02-24T11:25:52.353Z,1036.48
2018-02-24T11:27:19.462Z,1036.53
2018-02-24T11:28:46.646Z,1036.52
2018-02-24T11:30:13.756Z,1036.49
2018-02-24T11:31:40.902Z,1036.49
2018-02-24T11:33:08.089Z,1036.45
2018-02-24T11:34:35.113Z,1036.45
2018-02-24T11:36:02.071Z,1036.42
2018-02-24T11:37:29.222Z,1036.43
2018-02-24T11:38:56.231Z,1036.39
2018-02-24T11:40:23.389Z,1036.36
2018-02-24T11:41:50.451Z,1036.36
2018-02-24T11:43:17.456Z,1036.33
2018-02-24T11:44:44.578Z,1036.33
2018-02-24T11:46:11.787Z,1036.28
2018-02-24T11:47:38.952Z,1036.25
2018-02-24T11:49:06.124Z,1036.26
2018-02-24T11:50:33.146Z,1036.29
2018-02-24T11:52:00.125Z,1036.31
2018-02-24T11:53:26.940Z,1036.30
2018-02-24T11:54:53.764Z,1036.31
2018-02-24T11:56:20.996Z,1036.33
2018-02-24T11:57:48.175Z,1036.35
2018-02-24T11:59:15.288Z,1036.34
2018-02-24T12:00:42.398Z,1036.35
2018-02-24T12:02:09.702Z,1036.35
2018-02-24T12:03:36.744Z,1036.37
2018-02-24T12:05:03.776Z,1036.36
2018-02-24T12:06:30.887Z,1036.37
2018-02-24T12:07:57.928Z,1036.39
2018-02-24T12:09:25.077Z,1036.41
2018-02-24T12:10:52.310Z,1036.39
2018-02-24T12:12:19.425Z,1036.41
2018-02-24T12:13:46.469Z,1036.39
2018-02-24T12:15:13.366Z,1036.41
2018-02-24T12:16:40.451Z,1036.40
2018-02-24T12:18:07.375Z,1036.39
2018-02-24T12:19:34.570Z,1036.38
2018-02-24T12:21:01.604Z,1036.37
2018-02-24T12:22:28.858Z,1036.30
2018-02-24T12:23:56.192Z,1036.30
2018-02-24T12:25:23.248Z,1036.32
2018-02-24T12:26:50.266Z,1036.28
2018-02-24T12:28:17.398Z,1036.26
2018-02-24T12:29:44.426Z,1036.27
2018-02-24T12:31:11.295Z,1036.32
2018-02-24T12:32:38.409Z,1036.29
2018-02-24T12:34:05.553Z,1036.32
2018-02-24T12:35:32.554Z,1036.29
2018-02-24T12:36:59.770Z,1036.31
2018-02-24T12:38:26.927Z,1036.32
2018-02-24T12:39:54.129Z,1036.34
2018-02-24T12:41:21.389Z,1036.28
2018-02-24T12:42:48.346Z,1036.24
2018-02-24T12:44:15.360Z,1036.19
2018-02-24T12:45:42.452Z,1036.19
2018-02-24T12:47:09.346Z,1036.18
2018-02-24T12:48:36.596Z,1036.22
2018-02-24T12:50:03.607Z,1036.20
2018-02-24T12:51:30.725Z,1036.26
2018-02-24T12:52:57.945Z,1036.19
2018-02-24T12:54:25.188Z,1036.21
2018-02-24T12:55:52.320Z,1036.23
2018-02-24T12:57:19.566Z,1036.31
2018-02-24T12:58:46.694Z,1036.38
2018-02-24T13:00:13.444Z,1036.44
2018-02-24T13:01:40.597Z,1036.38
2018-02-24T13:03:07.665Z,1036.45
2018-02-24T13:04:34.699Z,1036.51
2018-02-24T13:06:01.805Z,1036.54
2018-02-24T13:07:28.682Z,1036.55
2018-02-24T13:08:55.458Z,1036.55
2018-02-24T13:10:22.481Z,1036.56
2018-02-24T13:11:49.566Z,1036.55
2018-02-24T13:13:16.730Z,1036.53
2018-02-24T13:14:43.943Z,1036.56
2018-02-24T13:16:10.972Z,1036.54
2018-02-24T13:17:37.864Z,1036.58
2018-02-24T13:19:04.817Z,1036.56
2018-02-24T13:20:31.930Z,1036.51
2018-02-24T13:21:58.877Z,1036.51
2018-02-24T13:23:26.086Z,1036.49
2018-02-24T13:24:53.350Z,1036.47
2018-02-24T13:26:20.310Z,1036.43
2018-02-24T13:27:47.452Z,1036.44
2018-02-24T13:29:14.600Z,1036.49
2018-02-24T13:30:41.590Z,1036.44
2018-02-24T13:32:08.739Z,1036.47
2018-02-24T13:33:35.852Z,1036.51
2018-02-24T13:35:02.873Z,1036.53
2018-02-24T13:36:29.974Z,1036.57
2018-02-24T13:37:57.070Z,1036.65
2018-02-24T13:39:24.401Z,1036.67
2018-02-24T13:40:51.145Z,1036.68
2018-02-24T13:42:18.244Z,1036.74
2018-02-24T13:43:45.379Z,1036.79
2018-02-24T13:45:12.484Z,1036.70
2018-02-24T13:46:39.750Z,1036.71
2018-02-24T13:48:06.824Z,1036.70
2018-02-24T13:49:33.978Z,1036.66
2018-02-24T13:51:00.938Z,1036.66
2018-02-24T13:52:28.249Z,1036.69
2018-02-24T13:53:55.074Z,1036.69
2018-02-24T13:55:22.268Z,1036.69
2018-02-24T13:56:49.446Z,1036.69
2018-02-24T13:58:16.704Z,1036.75
2018-02-24T13:59:42.932Z,1036.78
2018-02-24T14:01:10.097Z,1036.72
2018-02-24T14:02:37.315Z,1036.73
2018-02-24T14:04:04.467Z,1036.76
2018-02-24T14:05:31.473Z,1036.76
2018-02-24T14:06:58.611Z,1036.71
2018-02-24T14:08:25.833Z,1036.73
2018-02-24T14:09:52.849Z,1036.72
2018-02-24T14:11:19.977Z,1036.80
2018-02-24T14:12:46.913Z,1036.84
2018-02-24T14:14:14.109Z,1036.79
2018-02-24T14:15:41.204Z,1036.78
2018-02-24T14:17:08.277Z,1036.74
2018-02-24T14:18:35.263Z,1036.80
2018-02-24T14:20:02.179Z,1036.76
2018-02-24T14:21:29.157Z,1036.75
2018-02-24T14:22:56.415Z,1036.75
2018-02-24T14:24:23.442Z,1036.82
2018-02-24T14:25:50.732Z,1036.80
2018-02-24T14:27:17.899Z,1036.75
2018-02-24T14:28:44.956Z,1036.74
2018-02-24T14:30:11.837Z,1036.71
2018-02-24T14:31:38.886Z,1036.66
2018-02-24T14:33:06.067Z,1036.65
2018-02-24T14:34:33.292Z,1036.64
2018-02-24T14:36:00.152Z,1036.64
2018-02-24T14:37:27.273Z,1036.68
2018-02-24T14:38:54.395Z,1036.67
2018-02-24T14:40:21.627Z,1036.68
2018-02-24T14:41:48.823Z,1036.70
2018-02-24T14:43:15.730Z,1036.73
2018-02-24T14:44:43.088Z,1036.77
2018-02-24T14:46:09.938Z,1036.82
2018-02-24T14:47:37.081Z,1036.81
2018-02-24T14:49:04.255Z,1036.88
2018-02-24T14:50:31.300Z,1036.87
2018-02-24T14:51:58.367Z,1036.92
2018-02-24T14:53:25.482Z,1036.91
2018-02-24T14:54:52.755Z,1036.96
2018-02-24T14:56:19.853Z,1037.02
2018-02-24T14:57:46.871Z,1037.07
2018-02-24T14:59:13.911Z,1037.08
2018-02-24T15:00:41.091Z,1037.07
2018-02-24T15:02:08.242Z,1037.06
2018-02-24T15:03:35.204Z,1037.07
2018-02-24T15:05:02.112Z,1037.09
2018-02-24T15:06:28.943Z,1037.08
2018-02-24T15:07:55.949Z,1037.12
2018-02-24T15:09:22.903Z,1037.10
2018-02-24T15:10:50.046Z,1037.09
2018-02-24T15:12:17.050Z,1037.09
2018-02-24T15:13:44.200Z,1037.12
2018-02-24T15:15:11.292Z,1037.14
2018-02-24T15:16:38.190Z,1037.13
2018-02-24T15:18:05.422Z,1037.15
2018-02-24T15:19:32.272Z,1037.13
2018-02-24T15:20:59.213Z,1037.13
2018-02-24T15:22:26.120Z,1037.13
2018-02-24T15:23:53.096Z,1037.15
2018-02-24T15:25:20.238Z,1037.14
2018-02-24T15:26:47.250Z,1037.16
2018-02-24T15:28:14.277Z,1037.14
2018-02-24T15:29:41.367Z,1037.13
2018-02-24T15:31:08.506Z,1037.13
2018-02-24T15:32:35.424Z,1037.15
2018-02-24T15:34:02.527Z,1037.11
2018-02-24T15:35:29.464Z,1037.11
2018-02-24T15:36:56.439Z,1037.08
2018-02-24T15:38:23.311Z,1037.09
2018-02-24T15:39:50.426Z,1037.08
2018-02-24T15:41:17.354Z,1037.08
2018-02-24T15:42:44.252Z,1037.07
2018-02-24T15:44:11.271Z,1037.06
2018-02-24T15:45:38.316Z,1037.07
2018-02-24T15:47:05.453Z,1037.06
2018-02-24T15:48:32.264Z,1037.05
2018-02-24T15:49:59.358Z,1037.03
2018-02-24T15:51:26.445Z,1037.01
2018-02-24T15:52:53.420Z,1037.01
2018-02-24T15:54:20.548Z,1037.04
2018-02-24T15:55:47.561Z,1037.03
2018-02-24T15:57:14.542Z,1037.05
2018-02-24T15:58:41.394Z,1037.03
2018-02-24T16:00:08.898Z,1037.01
2018-02-24T16:01:35.637Z,1037.06
2018-02-24T16:03:02.700Z,1037.10
2018-02-24T16:04:30.008Z,1037.09
2018-02-24T16:05:57.057Z,1037.16
2018-02-24T16:07:24.183Z,1037.15
2018-02-24T16:08:51.048Z,1037.14
2018-02-24T16:10:18.099Z,1037.18
2018-02-24T16:11:45.188Z,1037.21
2018-02-24T16:13:12.040Z,1037.23
2018-02-24T16:14:39.097Z,1037.21
2018-02-24T16:16:06.132Z,1037.23
2018-02-24T16:17:33.092Z,1037.22
2018-02-24T16:18:59.955Z,1037.19
2018-02-24T16:20:26.921Z,1037.21
2018-02-24T16:21:54.041Z,1037.25
2018-02-24T16:23:21.001Z,1037.24
2018-02-24T16:24:48.024Z,1037.24
2018-02-24T16:26:15.009Z,1037.24
2018-02-24T16:27:41.887Z,1037.24
2018-02-24T16:29:08.784Z,1037.24
2018-02-24T16:30:35.597Z,1037.24
2018-02-24T16:32:02.634Z,1037.24
2018-02-24T16:33:29.659Z,1037.28
2018-02-24T16:34:56.743Z,1037.33
2018-02-24T16:36:23.690Z,1037.32
2018-02-24T16:37:50.654Z,1037.32
2018-02-24T16:39:17.859Z,1037.35
2018-02-24T16:40:44.873Z,1037.35
2018-02-24T16:42:11.915Z,1037.39
2018-02-24T16:43:38.854Z,1037.39
2018-02-24T16:45:05.553Z,1037.42
2018-02-24T16:46:32.488Z,1037.46
2018-02-24T16:47:59.280Z,1037.46
2018-02-24T16:49:26.246Z,1037.43
2018-02-24T16:50:53.412Z,1037.44
2018-02-24T16:52:20.348Z,1037.47
2018-02-24T16:53:47.333Z,1037.50
2018-02-24T16:55:14.465Z,1037.50
2018-02-24T16:56:41.486Z,1037.54
2018-02-24T16:58:08.514Z,1037.56
2018-02-24T16:59:35.528Z,1037.57
2018-02-24T17:01:02.499Z,1037.56
2018-02-24T17:02:29.555Z,1037.59
2018-02-24T17:03:56.588Z,1037.60
2018-02-24T17:05:23.719Z,1037.61
2018-02-24T17:06:50.719Z,1037.62
2018-02-24T17:08:17.575Z,1037.62
2018-02-24T17:09:44.615Z,1037.68
2018-02-24T17:11:11.661Z,1037.69
2018-02-24T17:12:38.689Z,1037.72
2018-02-24T17:14:05.791Z,1037.68
2018-02-24T17:15:32.807Z,1037.67
2018-02-24T17:16:59.727Z,1037.68
2018-02-24T17:18:26.745Z,1037.71
2018-02-24T17:19:53.779Z,1037.72
2018-02-24T17:21:20.725Z,1037.72
2018-02-24T17:22:47.899Z,1037.74
2018-02-24T17:24:14.714Z,1037.75
2018-02-24T17:25:41.674Z,1037.78
2018-02-24T17:27:08.588Z,1037.79
2018-02-24T17:28:35.663Z,1037.81
2018-02-24T17:30:02.660Z,1037.83
2018-02-24T17:31:29.695Z,1037.86
2018-02-24T17:32:56.619Z,1037.88